^^
Saratoga-Weather Station Historical Data
Daily Summary for June 5, 2021 Units:  Both    English   Metric
Daily Weekly Monthly Yearly Custom
  High: Low: Average:
Temperature: 48 °F /  8.9 °C 39.9 °F /  4.4 °C 43.3 °F /  6.3 °C
Dew Point: 45 °F /  7.2 °C 34.7 °F /  1.5 °C 38.3 °F /  3.5 °C
Humidity: 90% 76% 82%
Wind Speed: 8.1mph /  13km/h - 3.6mph /  5.8km/h
Wind Gust: 15mph /  24.1km/h - -
Wind- - West
Pressure: 29.7 in /  1006.4 hPa 29.7 in /  1004.1 hPa -
Precipitation: 0 in /  0.0 mm    
Historical Graphs
 
 
Tabular Data for June 5, 2021
Time Temperature Dew Point Pressure Wind Wind Speed Wind Gust Humidity Rainfall Rate (Hourly) solar
00:04 48 °F /  8.9 °C 45 °F /  7.2 °C 29.7in /  1004.7hPa NW 4mph /  6.4km/h 8mph /  12.9km/h 89% 0in /  0.0mm 0 W/m2
00:09 48 °F /  8.9 °C 45 °F /  7.2 °C 29.7in /  1004.7hPa West 6mph /  9.7km/h 9mph /  14.5km/h 89% 0in /  0.0mm 0 W/m2
00:14 47.8 °F /  8.8 °C 44.8 °F /  7.1 °C 29.7in /  1004.7hPa West 6mph /  9.7km/h 8mph /  12.9km/h 89% 0in /  0.0mm 0 W/m2
00:19 48 °F /  8.9 °C 45 °F /  7.2 °C 29.7in /  1004.7hPa West 0.9mph /  1.4km/h 4mph /  6.4km/h 89% 0in /  0.0mm 0 W/m2
00:24 47.8 °F /  8.8 °C 44.8 °F /  7.1 °C 29.7in /  1004.7hPa WSW 8.1mph /  13km/h 8mph /  12.9km/h 89% 0in /  0.0mm 0 W/m2
00:29 47.8 °F /  8.8 °C 44.8 °F /  7.1 °C 29.7in /  1004.4hPa West 2.9mph /  4.7km/h 6mph /  9.7km/h 89% 0in /  0.0mm 0 W/m2
00:34 47.7 °F /  8.7 °C 44.6 °F /  7 °C 29.7in /  1004.4hPa West 4mph /  6.4km/h 6mph /  9.7km/h 89% 0in /  0.0mm 0 W/m2
00:39 47.7 °F /  8.7 °C 45 °F /  7.2 °C 29.7in /  1004.4hPa West 6mph /  9.7km/h 6mph /  9.7km/h 90% 0in /  0.0mm 0 W/m2
00:44 47.5 °F /  8.6 °C 44.8 °F /  7.1 °C 29.7in /  1004.4hPa WSW 4mph /  6.4km/h 10mph /  16.1km/h 90% 0in /  0.0mm 0 W/m2
00:49 47.5 °F /  8.6 °C 44.8 °F /  7.1 °C 29.7in /  1004.4hPa West 2.9mph /  4.7km/h 6mph /  9.7km/h 90% 0in /  0.0mm 0 W/m2
00:54 47.1 °F /  8.4 °C 44.4 °F /  6.9 °C 29.7in /  1004.4hPa West 6mph /  9.7km/h 9mph /  14.5km/h 90% 0in /  0.0mm 0 W/m2
00:59 47.1 °F /  8.4 °C 44.4 °F /  6.9 °C 29.7in /  1004.4hPa WSW 2.9mph /  4.7km/h 6mph /  9.7km/h 90% 0in /  0.0mm 0 W/m2
01:04 46.9 °F /  8.3 °C 44.2 °F /  6.8 °C 29.7in /  1004.4hPa West 2.9mph /  4.7km/h 7mph /  11.3km/h 90% 0in /  0.0mm 0 W/m2
01:09 46.9 °F /  8.3 °C 44.2 °F /  6.8 °C 29.7in /  1004.4hPa WNW 2.9mph /  4.7km/h 6mph /  9.7km/h 90% 0in /  0.0mm 0 W/m2
01:14 46.8 °F /  8.2 °C 44.1 °F /  6.7 °C 29.7in /  1004.4hPa WNW 2mph /  3.2km/h 6mph /  9.7km/h 90% 0in /  0.0mm 0 W/m2
01:19 46.8 °F /  8.2 °C 44.1 °F /  6.7 °C 29.7in /  1004.4hPa West 4mph /  6.4km/h 8mph /  12.9km/h 90% 0in /  0.0mm 0 W/m2
01:24 46.6 °F /  8.1 °C 43.5 °F /  6.4 °C 29.7in /  1004.4hPa West 2mph /  3.2km/h 11mph /  17.7km/h 89% 0in /  0.0mm 0 W/m2
01:29 46.6 °F /  8.1 °C 43.5 °F /  6.4 °C 29.7in /  1004.1hPa West 2.9mph /  4.7km/h 9mph /  14.5km/h 89% 0in /  0.0mm 0 W/m2
01:34 46.4 °F /  8 °C 43.3 °F /  6.3 °C 29.7in /  1004.4hPa WSW 4mph /  6.4km/h 11mph /  17.7km/h 89% 0in /  0.0mm 0 W/m2
01:39 46.2 °F /  7.9 °C 43.2 °F /  6.2 °C 29.7in /  1004.4hPa SW 6mph /  9.7km/h 7mph /  11.3km/h 89% 0in /  0.0mm 0 W/m2
01:44 46.2 °F /  7.9 °C 42.8 °F /  6 °C 29.7in /  1004.4hPa WSW 4.9mph /  7.9km/h 9mph /  14.5km/h 88% 0in /  0.0mm 0 W/m2
01:49 46 °F /  7.8 °C 42.6 °F /  5.9 °C 29.7in /  1004.4hPa WNW 2.9mph /  4.7km/h 7mph /  11.3km/h 88% 0in /  0.0mm 0 W/m2
01:54 45.9 °F /  7.7 °C 41.9 °F /  5.5 °C 29.7in /  1004.4hPa WNW 2mph /  3.2km/h 7mph /  11.3km/h 86% 0in /  0.0mm 0 W/m2
01:59 45.9 °F /  7.7 °C 41.9 °F /  5.5 °C 29.7in /  1004.4hPa West 2mph /  3.2km/h 8mph /  12.9km/h 86% 0in /  0.0mm 0 W/m2
02:04 45.9 °F /  7.7 °C 41.4 °F /  5.2 °C 29.7in /  1004.4hPa WSW 4mph /  6.4km/h 5mph /  8km/h 84% 0in /  0.0mm 0 W/m2
02:09 45.7 °F /  7.6 °C 40.8 °F /  4.9 °C 29.7in /  1004.4hPa West 2mph /  3.2km/h 4mph /  6.4km/h 83% 0in /  0.0mm 0 W/m2
02:14 45.7 °F /  7.6 °C 40.8 °F /  4.9 °C 29.7in /  1004.4hPa West 4mph /  6.4km/h 6mph /  9.7km/h 83% 0in /  0.0mm 0 W/m2
02:19 45.5 °F /  7.5 °C 40.3 °F /  4.6 °C 29.7in /  1004.4hPa NW 2.9mph /  4.7km/h 4mph /  6.4km/h 82% 0in /  0.0mm 0 W/m2
02:24 45.3 °F /  7.4 °C 39.9 °F /  4.4 °C 29.7in /  1004.4hPa Calm   6mph /  9.7km/h 81% 0in /  0.0mm 0 W/m2
02:29 45.1 °F /  7.3 °C 39.4 °F /  4.1 °C 29.7in /  1004.1hPa West 2.9mph /  4.7km/h 7mph /  11.3km/h 80% 0in /  0.0mm 0 W/m2
02:34 45.1 °F /  7.3 °C 39.4 °F /  4.1 °C 29.7in /  1004.1hPa WSW 2.9mph /  4.7km/h 5mph /  8km/h 80% 0in /  0.0mm 0 W/m2
02:39 45 °F /  7.2 °C 38.1 °F /  3.4 °C 29.7in /  1004.1hPa WNW 2.9mph /  4.7km/h 9mph /  14.5km/h 77% 0in /  0.0mm 0 W/m2
02:44 45 °F /  7.2 °C 38.1 °F /  3.4 °C 29.7in /  1004.1hPa WNW 4mph /  6.4km/h 5mph /  8km/h 77% 0in /  0.0mm 0 W/m2
02:49 45 °F /  7.2 °C 38.1 °F /  3.4 °C 29.7in /  1004.1hPa WSW 2mph /  3.2km/h 9mph /  14.5km/h 77% 0in /  0.0mm 0 W/m2
02:54 44.8 °F /  7.1 °C 37.9 °F /  3.3 °C 29.7in /  1004.1hPa WSW 2mph /  3.2km/h 8mph /  12.9km/h 77% 0in /  0.0mm 0 W/m2
02:59 44.4 °F /  6.9 °C 37.6 °F /  3.1 °C 29.7in /  1004.1hPa West 6mph /  9.7km/h 6mph /  9.7km/h 77% 0in /  0.0mm 0 W/m2
03:04 44.4 °F /  6.9 °C 37.6 °F /  3.1 °C 29.7in /  1004.1hPa West 2mph /  3.2km/h 7mph /  11.3km/h 77% 0in /  0.0mm 0 W/m2
03:09 44.2 °F /  6.8 °C 37.6 °F /  3.1 °C 29.7in /  1004.4hPa WSW 4.9mph /  7.9km/h 8mph /  12.9km/h 77% 0in /  0.0mm 0 W/m2
03:14 44.1 °F /  6.7 °C 37.4 °F /  3 °C 29.7in /  1004.1hPa West 2mph /  3.2km/h 3mph /  4.8km/h 77% 0in /  0.0mm 0 W/m2
03:19 44.1 °F /  6.7 °C 37 °F /  2.8 °C 29.7in /  1004.4hPa WNW 4mph /  6.4km/h 5mph /  8km/h 76% 0in /  0.0mm 0 W/m2
03:24 43.9 °F /  6.6 °C 36.9 °F /  2.7 °C 29.7in /  1004.4hPa West 4mph /  6.4km/h 7mph /  11.3km/h 76% 0in /  0.0mm 0 W/m2
03:29 43.7 °F /  6.5 °C 36.7 °F /  2.6 °C 29.7in /  1004.1hPa West 2.9mph /  4.7km/h 6mph /  9.7km/h 76% 0in /  0.0mm 0 W/m2
03:34 43.5 °F /  6.4 °C 36.5 °F /  2.5 °C 29.7in /  1004.1hPa West 6mph /  9.7km/h 8mph /  12.9km/h 76% 0in /  0.0mm 0 W/m2
03:39 43.5 °F /  6.4 °C 36.5 °F /  2.5 °C 29.7in /  1004.1hPa WSW 2.9mph /  4.7km/h 7mph /  11.3km/h 76% 0in /  0.0mm 0 W/m2
03:45 43.5 °F /  6.4 °C 36.5 °F /  2.5 °C 29.7in /  1004.1hPa West 6mph /  9.7km/h 6mph /  9.7km/h 76% 0in /  0.0mm 0 W/m2
03:50 43.3 °F /  6.3 °C 36.7 °F /  2.6 °C 29.7in /  1004.1hPa West 2mph /  3.2km/h 3mph /  4.8km/h 77% 0in /  0.0mm 0 W/m2
03:55 43.3 °F /  6.3 °C 36.7 °F /  2.6 °C 29.7in /  1004.1hPa WNW 4.9mph /  7.9km/h 7mph /  11.3km/h 77% 0in /  0.0mm 0 W/m2
04:00 43.2 °F /  6.2 °C 36.5 °F /  2.5 °C 29.7in /  1004.1hPa WNW 2.9mph /  4.7km/h 8mph /  12.9km/h 77% 0in /  0.0mm 0 W/m2
04:05 43 °F /  6.1 °C 36.3 °F /  2.4 °C 29.7in /  1004.1hPa West 2mph /  3.2km/h 7mph /  11.3km/h 77% 0in /  0.0mm 0 W/m2
04:10 43 °F /  6.1 °C 36.3 °F /  2.4 °C 29.7in /  1004.1hPa WNW 2.9mph /  4.7km/h 6mph /  9.7km/h 77% 0in /  0.0mm 0 W/m2
04:15 42.8 °F /  6 °C 36.1 °F /  2.3 °C 29.7in /  1004.1hPa WNW 2.9mph /  4.7km/h 5mph /  8km/h 77% 0in /  0.0mm 0 W/m2
04:20 42.6 °F /  5.9 °C 36 °F /  2.2 °C 29.7in /  1004.4hPa West 2.9mph /  4.7km/h 7mph /  11.3km/h 77% 0in /  0.0mm 0 W/m2
04:25 42.4 °F /  5.8 °C 36.1 °F /  2.3 °C 29.7in /  1004.4hPa WNW 2.9mph /  4.7km/h 6mph /  9.7km/h 78% 0in /  0.0mm 0 W/m2
04:30 42.4 °F /  5.8 °C 36.1 °F /  2.3 °C 29.7in /  1004.4hPa NW 4mph /  6.4km/h 4mph /  6.4km/h 78% 0in /  0.0mm 0 W/m2
04:35 42.3 °F /  5.7 °C 36 °F /  2.2 °C 29.7in /  1004.4hPa WNW 0.9mph /  1.4km/h 4mph /  6.4km/h 78% 0in /  0.0mm 0 W/m2
04:40 42.1 °F /  5.6 °C 35.8 °F /  2.1 °C 29.7in /  1004.4hPa WNW 2mph /  3.2km/h 8mph /  12.9km/h 78% 0in /  0.0mm 0 W/m2
04:45 41.9 °F /  5.5 °C 35.6 °F /  2 °C 29.7in /  1004.4hPa WNW 4.9mph /  7.9km/h 7mph /  11.3km/h 78% 0in /  0.0mm 0 W/m2
04:50 41.9 °F /  5.5 °C 35.6 °F /  2 °C 29.7in /  1004.4hPa WNW 4mph /  6.4km/h 14mph /  22.5km/h 78% 0in /  0.0mm 0 W/m2
04:55 41.7 °F /  5.4 °C 35.4 °F /  1.9 °C 29.7in /  1004.4hPa West 4mph /  6.4km/h 10mph /  16.1km/h 78% 0in /  0.0mm 0 W/m2
05:00 41.7 °F /  5.4 °C 35.4 °F /  1.9 °C 29.7in /  1004.4hPa WNW 2mph /  3.2km/h 11mph /  17.7km/h 78% 0in /  0.0mm 0 W/m2
05:05 41.5 °F /  5.3 °C 35.2 °F /  1.8 °C 29.7in /  1004.4hPa West 2mph /  3.2km/h 7mph /  11.3km/h 78% 0in /  0.0mm 0 W/m2
05:10 41.4 °F /  5.2 °C 35.4 °F /  1.9 °C 29.7in /  1004.4hPa WNW 2mph /  3.2km/h 10mph /  16.1km/h 79% 0in /  0.0mm 0 W/m2
05:15 41.2 °F /  5.1 °C 35.2 °F /  1.8 °C 29.7in /  1004.4hPa SW 4mph /  6.4km/h 6mph /  9.7km/h 79% 0in /  0.0mm 0 W/m2
05:20 41.2 °F /  5.1 °C 35.2 °F /  1.8 °C 29.7in /  1004.7hPa WSW 2mph /  3.2km/h 10mph /  16.1km/h 79% 0in /  0.0mm 0 W/m2
05:25 40.8 °F /  4.9 °C 35.1 °F /  1.7 °C 29.7in /  1004.7hPa West 2.9mph /  4.7km/h 6mph /  9.7km/h 80% 0in /  0.0mm 0 W/m2
05:30 40.8 °F /  4.9 °C 35.1 °F /  1.7 °C 29.7in /  1004.7hPa WNW 2.9mph /  4.7km/h 6mph /  9.7km/h 80% 0in /  0.0mm 0 W/m2
05:35 40.6 °F /  4.8 °C 34.9 °F /  1.6 °C 29.7in /  1004.7hPa WNW 4mph /  6.4km/h 8mph /  12.9km/h 80% 0in /  0.0mm 0 W/m2
05:40 40.6 °F /  4.8 °C 34.9 °F /  1.6 °C 29.7in /  1004.7hPa WNW 2.9mph /  4.7km/h 9mph /  14.5km/h 80% 0in /  0.0mm 0 W/m2
05:45 40.5 °F /  4.7 °C 34.7 °F /  1.5 °C 29.7in /  1004.7hPa WNW 2.9mph /  4.7km/h 6mph /  9.7km/h 80% 0in /  0.0mm 0 W/m2
05:50 40.5 °F /  4.7 °C 35.1 °F /  1.7 °C 29.7in /  1004.7hPa West 4mph /  6.4km/h 8mph /  12.9km/h 81% 0in /  0.0mm 0 W/m2
05:55 40.3 °F /  4.6 °C 34.9 °F /  1.6 °C 29.7in /  1004.7hPa WSW 2.9mph /  4.7km/h 7mph /  11.3km/h 81% 0in /  0.0mm 0 W/m2
06:00 40.3 °F /  4.6 °C 34.9 °F /  1.6 °C 29.7in /  1004.7hPa West 4mph /  6.4km/h 8mph /  12.9km/h 81% 0in /  0.0mm 0 W/m2
06:05 40.3 °F /  4.6 °C 35.2 °F /  1.8 °C 29.7in /  1004.7hPa WNW 2mph /  3.2km/h 7mph /  11.3km/h 82% 0in /  0.0mm 0 W/m2
06:10 40.1 °F /  4.5 °C 35.1 °F /  1.7 °C 29.7in /  1004.7hPa NW 2.9mph /  4.7km/h 8mph /  12.9km/h 82% 0in /  0.0mm 0 W/m2
06:15 39.9 °F /  4.4 °C 34.9 °F /  1.6 °C 29.7in /  1004.7hPa West 2mph /  3.2km/h 8mph /  12.9km/h 82% 0in /  0.0mm 5 W/m2
06:20 39.9 °F /  4.4 °C 34.9 °F /  1.6 °C 29.7in /  1005.1hPa West 2.9mph /  4.7km/h 8mph /  12.9km/h 82% 0in /  0.0mm 9 W/m2
06:25 39.9 °F /  4.4 °C 35.2 °F /  1.8 °C 29.7in /  1005.1hPa West 2.9mph /  4.7km/h 7mph /  11.3km/h 83% 0in /  0.0mm 11 W/m2
06:30 39.9 °F /  4.4 °C 35.2 °F /  1.8 °C 29.7in /  1005.1hPa WNW 4mph /  6.4km/h 5mph /  8km/h 83% 0in /  0.0mm 12 W/m2
06:35 39.9 °F /  4.4 °C 35.2 °F /  1.8 °C 29.7in /  1005.1hPa WNW 2.9mph /  4.7km/h 3mph /  4.8km/h 83% 0in /  0.0mm 16 W/m2
06:40 39.9 °F /  4.4 °C 35.2 °F /  1.8 °C 29.7in /  1005.4hPa SSW 0.9mph /  1.4km/h 7mph /  11.3km/h 83% 0in /  0.0mm 18 W/m2
06:45 39.9 °F /  4.4 °C 35.2 °F /  1.8 °C 29.7in /  1005.4hPa West 8.1mph /  13km/h 8mph /  12.9km/h 83% 0in /  0.0mm 21 W/m2
06:50 40.1 °F /  4.5 °C 35.4 °F /  1.9 °C 29.7in /  1005.4hPa West 2.9mph /  4.7km/h 7mph /  11.3km/h 83% 0in /  0.0mm 23 W/m2
06:55 40.3 °F /  4.6 °C 35.8 °F /  2.1 °C 29.7in /  1005.4hPa West 8mph /  12.9km/h 8mph /  12.9km/h 84% 0in /  0.0mm 26 W/m2
07:01 40.3 °F /  4.6 °C 35.6 °F /  2 °C 29.7in /  1005.8hPa NNW 0.9mph /  1.4km/h 7mph /  11.3km/h 83% 0in /  0.0mm 35 W/m2
07:06 40.5 °F /  4.7 °C 36 °F /  2.2 °C 29.7in /  1005.8hPa West 6.9mph /  11.1km/h 8mph /  12.9km/h 84% 0in /  0.0mm 33 W/m2
07:11 40.5 °F /  4.7 °C 36 °F /  2.2 °C 29.7in /  1005.8hPa West 4mph /  6.4km/h 7mph /  11.3km/h 84% 0in /  0.0mm 35 W/m2
07:16 40.6 °F /  4.8 °C 36.1 °F /  2.3 °C 29.7in /  1006.1hPa WNW 6mph /  9.7km/h 9mph /  14.5km/h 84% 0in /  0.0mm 54 W/m2
07:21 40.6 °F /  4.8 °C 36.1 °F /  2.3 °C 29.7in /  1006.1hPa SW 2.9mph /  4.7km/h 10mph /  16.1km/h 84% 0in /  0.0mm 67 W/m2
07:26 40.8 °F /  4.9 °C 36.3 °F /  2.4 °C 29.7in /  1006.1hPa WSW 6.9mph /  11.1km/h 7mph /  11.3km/h 84% 0in /  0.0mm 102 W/m2
07:31 41 °F /  5 °C 36.5 °F /  2.5 °C 29.7in /  1006.1hPa NW 4.9mph /  7.9km/h 10mph /  16.1km/h 84% 0in /  0.0mm 62 W/m2
07:36 41.2 °F /  5.1 °C 36.7 °F /  2.6 °C 29.7in /  1006.4hPa NW 4.9mph /  7.9km/h 9mph /  14.5km/h 84% 0in /  0.0mm 84 W/m2
07:41 41.5 °F /  5.3 °C 37 °F /  2.8 °C 29.7in /  1006.4hPa WSW 2.9mph /  4.7km/h 8mph /  12.9km/h 84% 0in /  0.0mm 65 W/m2
07:46 41.5 °F /  5.3 °C 36.7 °F /  2.6 °C 29.7in /  1006.4hPa WNW 4.9mph /  7.9km/h 11mph /  17.7km/h 83% 0in /  0.0mm 72 W/m2
07:51 41.7 °F /  5.4 °C 36.9 °F /  2.7 °C 29.7in /  1006.4hPa West 6mph /  9.7km/h 10mph /  16.1km/h 83% 0in /  0.0mm 69 W/m2
07:56 42.3 °F /  5.7 °C 37.4 °F /  3 °C 29.7in /  1006.4hPa SW 4.9mph /  7.9km/h 10mph /  16.1km/h 83% 0in /  0.0mm 109 W/m2
08:01 42.4 °F /  5.8 °C 37.6 °F /  3.1 °C 29.7in /  1006.4hPa SW 2.9mph /  4.7km/h 7mph /  11.3km/h 83% 0in /  0.0mm 118 W/m2
08:06 43 °F /  6.1 °C 37.9 °F /  3.3 °C 29.7in /  1006.4hPa WSW 4mph /  6.4km/h 11mph /  17.7km/h 82% 0in /  0.0mm 72 W/m2
08:11 43.2 °F /  6.2 °C 37.8 °F /  3.2 °C 29.7in /  1006.4hPa WNW 6.9mph /  11.1km/h 15mph /  24.1km/h 81% 0in /  0.0mm 54 W/m2
Juneau County Weather
Compliments of Weather Underground - 4 mb